sensor_id;sensor_type;location;lat;lon;timestamp;P1;P2;P0
80965;PMS5003;70426;37.772;-122.432;2024-02-26T00:00:14;3;3;
80965;PMS5003;70426;37.772;-122.432;2024-02-26T00:02:40;2;2;
80965;PMS5003;70426;37.772;-122.432;2024-02-26T00:05:05;5;4;
80965;PMS5003;70426;37.772;-122.432;2024-02-26T00:07:29;4;3;
80965;PMS5003;70426;37.772;-122.432;2024-02-26T00:09:54;3;3;
80965;PMS5003;70426;37.772;-122.432;2024-02-26T00:12:20;4;3;
80965;PMS5003;70426;37.772;-122.432;2024-02-26T00:14:45;3;3;
80965;PMS5003;70426;37.772;-122.432;2024-02-26T00:17:10;4;4;
80965;PMS5003;70426;37.772;-122.432;2024-02-26T00:19:35;4;4;
80965;PMS5003;70426;37.772;-122.432;2024-02-26T00:22:00;5;5;
80965;PMS5003;70426;37.772;-122.432;2024-02-26T00:24:25;3;3;
80965;PMS5003;70426;37.772;-122.432;2024-02-26T00:26:50;2;2;
80965;PMS5003;70426;37.772;-122.432;2024-02-26T00:29:15;3;3;
80965;PMS5003;70426;37.772;-122.432;2024-02-26T00:31:40;3;3;
80965;PMS5003;70426;37.772;-122.432;2024-02-26T00:34:05;2;2;
80965;PMS5003;70426;37.772;-122.432;2024-02-26T00:36:30;4;3;
80965;PMS5003;70426;37.772;-122.432;2024-02-26T00:38:55;4;4;
80965;PMS5003;70426;37.772;-122.432;2024-02-26T00:41:20;3;3;
80965;PMS5003;70426;37.772;-122.432;2024-02-26T00:43:45;5;4;
80965;PMS5003;70426;37.772;-122.432;2024-02-26T00:46:11;3;3;
80965;PMS5003;70426;37.772;-122.432;2024-02-26T00:48:36;4;4;
80965;PMS5003;70426;37.772;-122.432;2024-02-26T00:51:01;3;3;
80965;PMS5003;70426;37.772;-122.432;2024-02-26T00:53:26;2;2;
80965;PMS5003;70426;37.772;-122.432;2024-02-26T00:55:51;4;4;
80965;PMS5003;70426;37.772;-122.432;2024-02-26T00:58:16;3;2;
80965;PMS5003;70426;37.772;-122.432;2024-02-26T01:00:41;3;3;
80965;PMS5003;70426;37.772;-122.432;2024-02-26T01:03:06;5;5;
80965;PMS5003;70426;37.772;-122.432;2024-02-26T01:05:31;5;5;
80965;PMS5003;70426;37.772;-122.432;2024-02-26T01:07:56;4;4;
80965;PMS5003;70426;37.772;-122.432;2024-02-26T01:10:21;6;5;
80965;PMS5003;70426;37.772;-122.432;2024-02-26T01:12:46;5;5;
80965;PMS5003;70426;37.772;-122.432;2024-02-26T01:15:11;4;4;
80965;PMS5003;70426;37.772;-122.432;2024-02-26T01:17:36;5;5;
80965;PMS5003;70426;37.772;-122.432;2024-02-26T01:20:02;5;5;
80965;PMS5003;70426;37.772;-122.432;2024-02-26T01:22:27;5;5;
80965;PMS5003;70426;37.772;-122.432;2024-02-26T01:24:53;2;2;
80965;PMS5003;70426;37.772;-122.432;2024-02-26T01:27:17;5;5;
80965;PMS5003;70426;37.772;-122.432;2024-02-26T01:29:44;4;4;
80965;PMS5003;70426;37.772;-122.432;2024-02-26T01:32:08;5;5;
80965;PMS5003;70426;37.772;-122.432;2024-02-26T01:34:33;5;5;
80965;PMS5003;70426;37.772;-122.432;2024-02-26T01:36:58;4;4;
80965;PMS5003;70426;37.772;-122.432;2024-02-26T01:39:23;5;4;
80965;PMS5003;70426;37.772;-122.432;2024-02-26T01:41:48;4;4;
80965;PMS5003;70426;37.772;-122.432;2024-02-26T01:44:13;6;5;
80965;PMS5003;70426;37.772;-122.432;2024-02-26T01:46:38;7;6;
80965;PMS5003;70426;37.772;-122.432;2024-02-26T01:49:03;4;3;
80965;PMS5003;70426;37.772;-122.432;2024-02-26T01:51:28;4;4;
80965;PMS5003;70426;37.772;-122.432;2024-02-26T01:53:53;5;5;
80965;PMS5003;70426;37.772;-122.432;2024-02-26T01:56:18;5;5;
80965;PMS5003;70426;37.772;-122.432;2024-02-26T01:58:43;4;4;
80965;PMS5003;70426;37.772;-122.432;2024-02-26T02:01:08;4;4;
80965;PMS5003;70426;37.772;-122.432;2024-02-26T02:03:33;4;4;
80965;PMS5003;70426;37.772;-122.432;2024-02-26T02:05:58;5;4;
80965;PMS5003;70426;37.772;-122.432;2024-02-26T02:08:24;4;4;
80965;PMS5003;70426;37.772;-122.432;2024-02-26T02:10:49;5;5;
80965;PMS5003;70426;37.772;-122.432;2024-02-26T02:13:15;4;4;
80965;PMS5003;70426;37.772;-122.432;2024-02-26T02:15:39;4;4;
80965;PMS5003;70426;37.772;-122.432;2024-02-26T02:18:04;4;4;
80965;PMS5003;70426;37.772;-122.432;2024-02-26T02:20:32;4;4;
80965;PMS5003;70426;37.772;-122.432;2024-02-26T02:22:54;5;5;
80965;PMS5003;70426;37.772;-122.432;2024-02-26T02:25:19;5;4;
80965;PMS5003;70426;37.772;-122.432;2024-02-26T02:27:44;4;3;
80965;PMS5003;70426;37.772;-122.432;2024-02-26T02:30:09;4;3;
80965;PMS5003;70426;37.772;-122.432;2024-02-26T02:32:35;3;2;
80965;PMS5003;70426;37.772;-122.432;2024-02-26T02:35:00;3;3;
80965;PMS5003;70426;37.772;-122.432;2024-02-26T02:37:24;2;2;
80965;PMS5003;70426;37.772;-122.432;2024-02-26T02:39:49;4;4;
80965;PMS5003;70426;37.772;-122.432;2024-02-26T02:42:15;4;4;
80965;PMS5003;70426;37.772;-122.432;2024-02-26T02:44:40;3;3;
80965;PMS5003;70426;37.772;-122.432;2024-02-26T02:47:05;4;4;
80965;PMS5003;70426;37.772;-122.432;2024-02-26T02:49:30;3;3;
80965;PMS5003;70426;37.772;-122.432;2024-02-26T02:51:55;4;4;
80965;PMS5003;70426;37.772;-122.432;2024-02-26T02:54:22;3;3;
80965;PMS5003;70426;37.772;-122.432;2024-02-26T02:56:45;1;1;
80965;PMS5003;70426;37.772;-122.432;2024-02-26T02:59:10;4;4;
80965;PMS5003;70426;37.772;-122.432;2024-02-26T03:01:35;3;3;
80965;PMS5003;70426;37.772;-122.432;2024-02-26T03:04:00;10;9;
80965;PMS5003;70426;37.772;-122.432;2024-02-26T03:06:26;8;6;
80965;PMS5003;70426;37.772;-122.432;2024-02-26T03:08:50;8;6;
80965;PMS5003;70426;37.772;-122.432;2024-02-26T03:11:16;19;14;
80965;PMS5003;70426;37.772;-122.432;2024-02-26T03:13:41;17;16;
80965;PMS5003;70426;37.772;-122.432;2024-02-26T03:16:06;13;12;
80965;PMS5003;70426;37.772;-122.432;2024-02-26T03:18:31;12;11;
80965;PMS5003;70426;37.772;-122.432;2024-02-26T03:20:56;12;10;
80965;PMS5003;70426;37.772;-122.432;2024-02-26T03:23:22;10;7;
80965;PMS5003;70426;37.772;-122.432;2024-02-26T03:25:47;10;9;
80965;PMS5003;70426;37.772;-122.432;2024-02-26T03:28:12;7;6;
80965;PMS5003;70426;37.772;-122.432;2024-02-26T03:30:37;8;7;
80965;PMS5003;70426;37.772;-122.432;2024-02-26T03:33:02;6;6;
80965;PMS5003;70426;37.772;-122.432;2024-02-26T03:35:27;9;7;
80965;PMS5003;70426;37.772;-122.432;2024-02-26T03:37:52;6;4;
80965;PMS5003;70426;37.772;-122.432;2024-02-26T03:40:18;6;6;
80965;PMS5003;70426;37.772;-122.432;2024-02-26T03:42:42;8;6;
80965;PMS5003;70426;37.772;-122.432;2024-02-26T03:45:08;7;6;
80965;PMS5003;70426;37.772;-122.432;2024-02-26T03:47:33;6;5;
80965;PMS5003;70426;37.772;-122.432;2024-02-26T03:49:58;6;6;
80965;PMS5003;70426;37.772;-122.432;2024-02-26T03:52:24;6;5;
80965;PMS5003;70426;37.772;-122.432;2024-02-26T03:54:48;5;5;
80965;PMS5003;70426;37.772;-122.432;2024-02-26T03:57:13;6;6;
80965;PMS5003;70426;37.772;-122.432;2024-02-26T03:59:38;5;5;
80965;PMS5003;70426;37.772;-122.432;2024-02-26T04:02:04;6;5;
80965;PMS5003;70426;37.772;-122.432;2024-02-26T04:04:28;7;6;
80965;PMS5003;70426;37.772;-122.432;2024-02-26T04:06:53;6;5;
80965;PMS5003;70426;37.772;-122.432;2024-02-26T04:09:18;5;5;
80965;PMS5003;70426;37.772;-122.432;2024-02-26T04:11:43;6;6;
80965;PMS5003;70426;37.772;-122.432;2024-02-26T04:14:08;4;3;
80965;PMS5003;70426;37.772;-122.432;2024-02-26T04:16:34;5;5;
80965;PMS5003;70426;37.772;-122.432;2024-02-26T04:18:59;4;4;
80965;PMS5003;70426;37.772;-122.432;2024-02-26T04:21:24;5;5;
80965;PMS5003;70426;37.772;-122.432;2024-02-26T04:23:49;5;4;
80965;PMS5003;70426;37.772;-122.432;2024-02-26T04:26:14;3;3;
80965;PMS5003;70426;37.772;-122.432;2024-02-26T04:28:39;4;3;
80965;PMS5003;70426;37.772;-122.432;2024-02-26T04:31:04;4;4;
80965;PMS5003;70426;37.772;-122.432;2024-02-26T04:33:30;5;4;
80965;PMS5003;70426;37.772;-122.432;2024-02-26T04:35:55;4;4;
80965;PMS5003;70426;37.772;-122.432;2024-02-26T04:38:20;2;2;
80965;PMS5003;70426;37.772;-122.432;2024-02-26T04:40:45;4;4;
80965;PMS5003;70426;37.772;-122.432;2024-02-26T04:43:10;4;4;
80965;PMS5003;70426;37.772;-122.432;2024-02-26T04:45:35;4;4;
80965;PMS5003;70426;37.772;-122.432;2024-02-26T04:48:00;4;4;
80965;PMS5003;70426;37.772;-122.432;2024-02-26T04:50:25;4;4;
80965;PMS5003;70426;37.772;-122.432;2024-02-26T04:52:50;5;4;
80965;PMS5003;70426;37.772;-122.432;2024-02-26T04:55:15;4;4;
80965;PMS5003;70426;37.772;-122.432;2024-02-26T04:57:40;4;4;
80965;PMS5003;70426;37.772;-122.432;2024-02-26T05:00:06;4;4;
80965;PMS5003;70426;37.772;-122.432;2024-02-26T05:02:30;4;3;
80965;PMS5003;70426;37.772;-122.432;2024-02-26T05:04:55;6;5;
80965;PMS5003;70426;37.772;-122.432;2024-02-26T05:07:21;4;4;
80965;PMS5003;70426;37.772;-122.432;2024-02-26T05:09:46;4;4;
80965;PMS5003;70426;37.772;-122.432;2024-02-26T05:12:11;4;4;
80965;PMS5003;70426;37.772;-122.432;2024-02-26T05:14:36;6;4;
80965;PMS5003;70426;37.772;-122.432;2024-02-26T05:17:01;3;3;
80965;PMS5003;70426;37.772;-122.432;2024-02-26T05:19:26;5;4;
80965;PMS5003;70426;37.772;-122.432;2024-02-26T05:21:52;5;5;
80965;PMS5003;70426;37.772;-122.432;2024-02-26T05:24:16;5;5;
80965;PMS5003;70426;37.772;-122.432;2024-02-26T05:26:41;8;6;
80965;PMS5003;70426;37.772;-122.432;2024-02-26T05:29:07;4;4;
80965;PMS5003;70426;37.772;-122.432;2024-02-26T05:31:33;5;5;
80965;PMS5003;70426;37.772;-122.432;2024-02-26T05:33:57;4;4;
80965;PMS5003;70426;37.772;-122.432;2024-02-26T05:36:22;3;2;
80965;PMS5003;70426;37.772;-122.432;2024-02-26T05:38:47;7;6;
80965;PMS5003;70426;37.772;-122.432;2024-02-26T05:41:12;6;5;
80965;PMS5003;70426;37.772;-122.432;2024-02-26T05:43:38;4;4;
80965;PMS5003;70426;37.772;-122.432;2024-02-26T05:46:03;5;5;
80965;PMS5003;70426;37.772;-122.432;2024-02-26T05:48:28;7;7;
80965;PMS5003;70426;37.772;-122.432;2024-02-26T05:50:54;5;4;
80965;PMS5003;70426;37.772;-122.432;2024-02-26T05:53:18;5;4;
80965;PMS5003;70426;37.772;-122.432;2024-02-26T05:55:44;6;6;
80965;PMS5003;70426;37.772;-122.432;2024-02-26T05:58:08;7;6;
80965;PMS5003;70426;37.772;-122.432;2024-02-26T06:00:34;7;7;
80965;PMS5003;70426;37.772;-122.432;2024-02-26T06:02:59;5;5;
80965;PMS5003;70426;37.772;-122.432;2024-02-26T06:05:25;6;5;
80965;PMS5003;70426;37.772;-122.432;2024-02-26T06:07:49;6;6;
80965;PMS5003;70426;37.772;-122.432;2024-02-26T06:10:14;6;6;
80965;PMS5003;70426;37.772;-122.432;2024-02-26T06:12:39;8;5;
80965;PMS5003;70426;37.772;-122.432;2024-02-26T06:15:04;4;4;
80965;PMS5003;70426;37.772;-122.432;2024-02-26T06:17:29;6;6;
80965;PMS5003;70426;37.772;-122.432;2024-02-26T06:19:54;5;5;
80965;PMS5003;70426;37.772;-122.432;2024-02-26T06:22:19;7;6;
80965;PMS5003;70426;37.772;-122.432;2024-02-26T06:24:44;6;6;
80965;PMS5003;70426;37.772;-122.432;2024-02-26T06:27:09;6;6;
80965;PMS5003;70426;37.772;-122.432;2024-02-26T06:29:34;6;6;
80965;PMS5003;70426;37.772;-122.432;2024-02-26T06:32:00;6;5;
80965;PMS5003;70426;37.772;-122.432;2024-02-26T06:34:27;5;5;
80965;PMS5003;70426;37.772;-122.432;2024-02-26T06:36:50;5;5;
80965;PMS5003;70426;37.772;-122.432;2024-02-26T06:39:15;6;6;
80965;PMS5003;70426;37.772;-122.432;2024-02-26T06:41:40;6;5;
80965;PMS5003;70426;37.772;-122.432;2024-02-26T06:44:05;6;6;
80965;PMS5003;70426;37.772;-122.432;2024-02-26T06:46:30;5;5;
80965;PMS5003;70426;37.772;-122.432;2024-02-26T06:48:55;5;5;
80965;PMS5003;70426;37.772;-122.432;2024-02-26T06:51:20;5;5;
80965;PMS5003;70426;37.772;-122.432;2024-02-26T06:53:45;6;6;
80965;PMS5003;70426;37.772;-122.432;2024-02-26T06:56:11;5;5;
80965;PMS5003;70426;37.772;-122.432;2024-02-26T06:58:35;5;5;
80965;PMS5003;70426;37.772;-122.432;2024-02-26T07:01:00;6;5;
80965;PMS5003;70426;37.772;-122.432;2024-02-26T07:03:40;5;5;
80965;PMS5003;70426;37.772;-122.432;2024-02-26T07:05:51;5;5;
80965;PMS5003;70426;37.772;-122.432;2024-02-26T07:08:16;5;5;
80965;PMS5003;70426;37.772;-122.432;2024-02-26T07:10:41;4;4;
80965;PMS5003;70426;37.772;-122.432;2024-02-26T07:13:06;6;6;
80965;PMS5003;70426;37.772;-122.432;2024-02-26T07:15:31;4;4;
80965;PMS5003;70426;37.772;-122.432;2024-02-26T07:17:56;5;4;
80965;PMS5003;70426;37.772;-122.432;2024-02-26T07:20:21;6;5;
80965;PMS5003;70426;37.772;-122.432;2024-02-26T07:22:46;4;4;
80965;PMS5003;70426;37.772;-122.432;2024-02-26T07:25:11;5;4;
80965;PMS5003;70426;37.772;-122.432;2024-02-26T07:27:36;4;4;
80965;PMS5003;70426;37.772;-122.432;2024-02-26T07:30:01;3;3;
80965;PMS5003;70426;37.772;-122.432;2024-02-26T07:32:26;5;4;
80965;PMS5003;70426;37.772;-122.432;2024-02-26T07:34:51;3;3;
80965;PMS5003;70426;37.772;-122.432;2024-02-26T07:37:16;3;3;
80965;PMS5003;70426;37.772;-122.432;2024-02-26T07:39:43;4;4;
80965;PMS5003;70426;37.772;-122.432;2024-02-26T07:42:07;3;3;
80965;PMS5003;70426;37.772;-122.432;2024-02-26T07:44:32;4;4;
80965;PMS5003;70426;37.772;-122.432;2024-02-26T07:46:57;4;3;
80965;PMS5003;70426;37.772;-122.432;2024-02-26T07:49:22;5;4;
80965;PMS5003;70426;37.772;-122.432;2024-02-26T07:51:47;4;4;
80965;PMS5003;70426;37.772;-122.432;2024-02-26T07:54:12;5;4;
80965;PMS5003;70426;37.772;-122.432;2024-02-26T07:56:37;4;4;
80965;PMS5003;70426;37.772;-122.432;2024-02-26T07:59:02;4;4;
80965;PMS5003;70426;37.772;-122.432;2024-02-26T08:01:27;3;3;
80965;PMS5003;70426;37.772;-122.432;2024-02-26T08:03:52;3;3;
80965;PMS5003;70426;37.772;-122.432;2024-02-26T08:06:17;3;3;
80965;PMS5003;70426;37.772;-122.432;2024-02-26T08:08:42;3;3;
80965;PMS5003;70426;37.772;-122.432;2024-02-26T08:11:08;3;3;
80965;PMS5003;70426;37.772;-122.432;2024-02-26T08:13:32;1;1;
80965;PMS5003;70426;37.772;-122.432;2024-02-26T08:15:57;2;2;
80965;PMS5003;70426;37.772;-122.432;2024-02-26T08:18:23;1;1;
80965;PMS5003;70426;37.772;-122.432;2024-02-26T08:20:48;3;3;
80965;PMS5003;70426;37.772;-122.432;2024-02-26T08:23:13;3;3;
80965;PMS5003;70426;37.772;-122.432;2024-02-26T08:25:38;2;1;
80965;PMS5003;70426;37.772;-122.432;2024-02-26T08:28:03;3;3;
80965;PMS5003;70426;37.772;-122.432;2024-02-26T08:30:28;3;3;
80965;PMS5003;70426;37.772;-122.432;2024-02-26T08:32:53;2;2;
80965;PMS5003;70426;37.772;-122.432;2024-02-26T08:35:18;3;3;
80965;PMS5003;70426;37.772;-122.432;2024-02-26T08:37:44;2;2;
80965;PMS5003;70426;37.772;-122.432;2024-02-26T08:40:08;3;2;
80965;PMS5003;70426;37.772;-122.432;2024-02-26T08:42:33;4;3;
80965;PMS5003;70426;37.772;-122.432;2024-02-26T08:44:59;2;2;
80965;PMS5003;70426;37.772;-122.432;2024-02-26T08:47:23;1;1;
80965;PMS5003;70426;37.772;-122.432;2024-02-26T08:49:48;2;2;
80965;PMS5003;70426;37.772;-122.432;2024-02-26T08:52:13;1;1;
80965;PMS5003;70426;37.772;-122.432;2024-02-26T08:54:39;1;1;
80965;PMS5003;70426;37.772;-122.432;2024-02-26T08:57:04;2;2;
80965;PMS5003;70426;37.772;-122.432;2024-02-26T08:59:29;2;2;
80965;PMS5003;70426;37.772;-122.432;2024-02-26T09:01:54;2;2;
80965;PMS5003;70426;37.772;-122.432;2024-02-26T09:04:19;2;2;
80965;PMS5003;70426;37.772;-122.432;2024-02-26T09:06:44;3;3;
80965;PMS5003;70426;37.772;-122.432;2024-02-26T09:09:09;1;1;
80965;PMS5003;70426;37.772;-122.432;2024-02-26T09:11:34;1;1;
80965;PMS5003;70426;37.772;-122.432;2024-02-26T09:13:59;1;1;
80965;PMS5003;70426;37.772;-122.432;2024-02-26T09:16:24;2;2;
80965;PMS5003;70426;37.772;-122.432;2024-02-26T09:18:49;1;1;
80965;PMS5003;70426;37.772;-122.432;2024-02-26T09:21:14;2;2;
80965;PMS5003;70426;37.772;-122.432;2024-02-26T09:23:39;1;1;
80965;PMS5003;70426;37.772;-122.432;2024-02-26T09:26:05;1;1;
80965;PMS5003;70426;37.772;-122.432;2024-02-26T09:28:29;2;2;
80965;PMS5003;70426;37.772;-122.432;2024-02-26T09:30:54;2;2;
80965;PMS5003;70426;37.772;-122.432;2024-02-26T09:33:19;2;1;
80965;PMS5003;70426;37.772;-122.432;2024-02-26T09:35:44;0;0;
80965;PMS5003;70426;37.772;-122.432;2024-02-26T09:38:10;1;1;
80965;PMS5003;70426;37.772;-122.432;2024-02-26T09:40:35;2;1;
80965;PMS5003;70426;37.772;-122.432;2024-02-26T09:43:00;2;1;
80965;PMS5003;70426;37.772;-122.432;2024-02-26T09:45:25;1;1;
80965;PMS5003;70426;37.772;-122.432;2024-02-26T09:47:50;1;1;
80965;PMS5003;70426;37.772;-122.432;2024-02-26T09:50:15;1;1;
80965;PMS5003;70426;37.772;-122.432;2024-02-26T09:52:40;2;1;
80965;PMS5003;70426;37.772;-122.432;2024-02-26T09:55:05;1;1;
80965;PMS5003;70426;37.772;-122.432;2024-02-26T09:57:30;1;1;
80965;PMS5003;70426;37.772;-122.432;2024-02-26T09:59:55;1;1;
80965;PMS5003;70426;37.772;-122.432;2024-02-26T10:02:20;1;1;
80965;PMS5003;70426;37.772;-122.432;2024-02-26T10:04:45;1;0;
80965;PMS5003;70426;37.772;-122.432;2024-02-26T10:07:11;2;1;
80965;PMS5003;70426;37.772;-122.432;2024-02-26T10:09:35;1;1;
80965;PMS5003;70426;37.772;-122.432;2024-02-26T10:12:00;2;2;
80965;PMS5003;70426;37.772;-122.432;2024-02-26T10:14:25;1;1;
80965;PMS5003;70426;37.772;-122.432;2024-02-26T10:16:50;2;2;
80965;PMS5003;70426;37.772;-122.432;2024-02-26T10:21:41;0;0;
80965;PMS5003;70426;37.772;-122.432;2024-02-26T10:24:07;0;0;
80965;PMS5003;70426;37.772;-122.432;2024-02-26T10:26:31;1;1;
80965;PMS5003;70426;37.772;-122.432;2024-02-26T10:28:56;2;2;
80965;PMS5003;70426;37.772;-122.432;2024-02-26T10:31:21;1;1;
80965;PMS5003;70426;37.772;-122.432;2024-02-26T10:33:46;2;2;
80965;PMS5003;70426;37.772;-122.432;2024-02-26T10:36:11;0;0;
80965;PMS5003;70426;37.772;-122.432;2024-02-26T10:38:36;1;1;
80965;PMS5003;70426;37.772;-122.432;2024-02-26T10:41:01;1;1;
80965;PMS5003;70426;37.772;-122.432;2024-02-26T10:43:27;0;0;
80965;PMS5003;70426;37.772;-122.432;2024-02-26T10:45:52;1;1;
80965;PMS5003;70426;37.772;-122.432;2024-02-26T10:48:17;1;1;
80965;PMS5003;70426;37.772;-122.432;2024-02-26T10:50:42;2;2;
80965;PMS5003;70426;37.772;-122.432;2024-02-26T10:53:12;2;2;
80965;PMS5003;70426;37.772;-122.432;2024-02-26T10:55:33;2;2;
80965;PMS5003;70426;37.772;-122.432;2024-02-26T10:57:57;0;0;
80965;PMS5003;70426;37.772;-122.432;2024-02-26T11:00:22;1;1;
80965;PMS5003;70426;37.772;-122.432;2024-02-26T11:02:47;2;1;
80965;PMS5003;70426;37.772;-122.432;2024-02-26T11:05:12;2;1;
80965;PMS5003;70426;37.772;-122.432;2024-02-26T11:07:38;2;2;
80965;PMS5003;70426;37.772;-122.432;2024-02-26T11:10:03;1;1;
80965;PMS5003;70426;37.772;-122.432;2024-02-26T11:12:28;0;0;
80965;PMS5003;70426;37.772;-122.432;2024-02-26T11:14:52;2;1;
80965;PMS5003;70426;37.772;-122.432;2024-02-26T11:17:17;2;2;
80965;PMS5003;70426;37.772;-122.432;2024-02-26T11:19:43;1;1;
80965;PMS5003;70426;37.772;-122.432;2024-02-26T11:22:07;1;1;
80965;PMS5003;70426;37.772;-122.432;2024-02-26T11:24:33;1;1;
80965;PMS5003;70426;37.772;-122.432;2024-02-26T11:26:58;0;0;
80965;PMS5003;70426;37.772;-122.432;2024-02-26T11:29:23;1;1;
80965;PMS5003;70426;37.772;-122.432;2024-02-26T11:31:48;2;2;
80965;PMS5003;70426;37.772;-122.432;2024-02-26T11:34:13;2;2;
80965;PMS5003;70426;37.772;-122.432;2024-02-26T11:36:38;2;1;
80965;PMS5003;70426;37.772;-122.432;2024-02-26T11:39:04;2;2;
80965;PMS5003;70426;37.772;-122.432;2024-02-26T11:41:28;2;2;
80965;PMS5003;70426;37.772;-122.432;2024-02-26T11:43:57;1;1;
80965;PMS5003;70426;37.772;-122.432;2024-02-26T11:48:43;1;1;
80965;PMS5003;70426;37.772;-122.432;2024-02-26T11:51:08;1;1;
80965;PMS5003;70426;37.772;-122.432;2024-02-26T11:53:33;1;1;
80965;PMS5003;70426;37.772;-122.432;2024-02-26T11:58:23;1;1;
80965;PMS5003;70426;37.772;-122.432;2024-02-26T12:00:48;1;1;
80965;PMS5003;70426;37.772;-122.432;2024-02-26T12:03:13;2;2;
80965;PMS5003;70426;37.772;-122.432;2024-02-26T12:05:39;1;1;
80965;PMS5003;70426;37.772;-122.432;2024-02-26T12:08:05;1;1;
80965;PMS5003;70426;37.772;-122.432;2024-02-26T12:10:31;2;2;
80965;PMS5003;70426;37.772;-122.432;2024-02-26T12:12:54;2;1;
80965;PMS5003;70426;37.772;-122.432;2024-02-26T12:15:19;2;1;
80965;PMS5003;70426;37.772;-122.432;2024-02-26T12:17:46;0;0;
80965;PMS5003;70426;37.772;-122.432;2024-02-26T12:20:10;2;2;
80965;PMS5003;70426;37.772;-122.432;2024-02-26T12:22:34;2;2;
80965;PMS5003;70426;37.772;-122.432;2024-02-26T12:24:59;0;0;
80965;PMS5003;70426;37.772;-122.432;2024-02-26T12:27:24;3;2;
80965;PMS5003;70426;37.772;-122.432;2024-02-26T12:29:49;2;2;
80965;PMS5003;70426;37.772;-122.432;2024-02-26T12:32:14;3;2;
80965;PMS5003;70426;37.772;-122.432;2024-02-26T12:34:39;2;1;
80965;PMS5003;70426;37.772;-122.432;2024-02-26T12:37:04;1;1;
80965;PMS5003;70426;37.772;-122.432;2024-02-26T12:39:29;1;1;
80965;PMS5003;70426;37.772;-122.432;2024-02-26T12:41:55;2;1;
80965;PMS5003;70426;37.772;-122.432;2024-02-26T12:46:44;2;2;
80965;PMS5003;70426;37.772;-122.432;2024-02-26T12:49:14;3;2;
80965;PMS5003;70426;37.772;-122.432;2024-02-26T12:51:35;2;2;
80965;PMS5003;70426;37.772;-122.432;2024-02-26T12:54:00;2;2;
80965;PMS5003;70426;37.772;-122.432;2024-02-26T12:56:25;1;1;
80965;PMS5003;70426;37.772;-122.432;2024-02-26T12:58:50;3;2;
80965;PMS5003;70426;37.772;-122.432;2024-02-26T13:01:15;2;2;
80965;PMS5003;70426;37.772;-122.432;2024-02-26T13:03:40;1;1;
80965;PMS5003;70426;37.772;-122.432;2024-02-26T13:06:05;1;1;
80965;PMS5003;70426;37.772;-122.432;2024-02-26T13:08:31;1;1;
80965;PMS5003;70426;37.772;-122.432;2024-02-26T13:10:55;2;1;
80965;PMS5003;70426;37.772;-122.432;2024-02-26T13:13:20;2;1;
80965;PMS5003;70426;37.772;-122.432;2024-02-26T13:15:45;2;2;
80965;PMS5003;70426;37.772;-122.432;2024-02-26T13:18:11;2;2;
80965;PMS5003;70426;37.772;-122.432;2024-02-26T13:20:35;2;2;
80965;PMS5003;70426;37.772;-122.432;2024-02-26T13:23:01;2;2;
80965;PMS5003;70426;37.772;-122.432;2024-02-26T13:25:26;2;2;
80965;PMS5003;70426;37.772;-122.432;2024-02-26T13:27:51;3;3;
80965;PMS5003;70426;37.772;-122.432;2024-02-26T13:30:16;4;4;
80965;PMS5003;70426;37.772;-122.432;2024-02-26T13:32:41;3;3;
80965;PMS5003;70426;37.772;-122.432;2024-02-26T13:35:06;5;5;
80965;PMS5003;70426;37.772;-122.432;2024-02-26T13:37:31;3;3;
80965;PMS5003;70426;37.772;-122.432;2024-02-26T13:39:56;4;4;
80965;PMS5003;70426;37.772;-122.432;2024-02-26T13:42:21;2;2;
80965;PMS5003;70426;37.772;-122.432;2024-02-26T13:44:46;4;3;
80965;PMS5003;70426;37.772;-122.432;2024-02-26T13:47:12;3;3;
80965;PMS5003;70426;37.772;-122.432;2024-02-26T13:49:36;4;3;
80965;PMS5003;70426;37.772;-122.432;2024-02-26T13:52:01;3;3;
80965;PMS5003;70426;37.772;-122.432;2024-02-26T13:54:26;4;4;
80965;PMS5003;70426;37.772;-122.432;2024-02-26T13:56:51;3;3;
80965;PMS5003;70426;37.772;-122.432;2024-02-26T13:59:16;3;3;
80965;PMS5003;70426;37.772;-122.432;2024-02-26T14:01:41;3;3;
80965;PMS5003;70426;37.772;-122.432;2024-02-26T14:04:07;3;3;
80965;PMS5003;70426;37.772;-122.432;2024-02-26T14:06:32;3;3;
80965;PMS5003;70426;37.772;-122.432;2024-02-26T14:08:57;3;3;
80965;PMS5003;70426;37.772;-122.432;2024-02-26T14:11:22;4;4;
80965;PMS5003;70426;37.772;-122.432;2024-02-26T14:13:47;2;2;
80965;PMS5003;70426;37.772;-122.432;2024-02-26T14:16:12;3;3;
80965;PMS5003;70426;37.772;-122.432;2024-02-26T14:18:37;2;2;
80965;PMS5003;70426;37.772;-122.432;2024-02-26T14:21:02;2;2;
80965;PMS5003;70426;37.772;-122.432;2024-02-26T14:23:27;3;3;
80965;PMS5003;70426;37.772;-122.432;2024-02-26T14:25:52;2;2;
80965;PMS5003;70426;37.772;-122.432;2024-02-26T14:28:17;3;3;
80965;PMS5003;70426;37.772;-122.432;2024-02-26T14:30:42;2;2;
80965;PMS5003;70426;37.772;-122.432;2024-02-26T14:33:07;2;2;
80965;PMS5003;70426;37.772;-122.432;2024-02-26T14:35:32;2;2;
80965;PMS5003;70426;37.772;-122.432;2024-02-26T14:37:57;2;2;
80965;PMS5003;70426;37.772;-122.432;2024-02-26T14:40:23;3;3;
80965;PMS5003;70426;37.772;-122.432;2024-02-26T14:42:48;2;2;
80965;PMS5003;70426;37.772;-122.432;2024-02-26T14:45:13;2;2;
80965;PMS5003;70426;37.772;-122.432;2024-02-26T14:47:38;2;2;
80965;PMS5003;70426;37.772;-122.432;2024-02-26T14:50:03;2;2;
80965;PMS5003;70426;37.772;-122.432;2024-02-26T14:52:29;3;3;
80965;PMS5003;70426;37.772;-122.432;2024-02-26T14:54:53;2;2;
80965;PMS5003;70426;37.772;-122.432;2024-02-26T14:57:18;2;2;
80965;PMS5003;70426;37.772;-122.432;2024-02-26T14:59:43;2;2;
80965;PMS5003;70426;37.772;-122.432;2024-02-26T15:02:08;2;2;
80965;PMS5003;70426;37.772;-122.432;2024-02-26T15:04:33;4;3;
80965;PMS5003;70426;37.772;-122.432;2024-02-26T15:06:58;2;2;
80965;PMS5003;70426;37.772;-122.432;2024-02-26T15:09:23;2;2;
80965;PMS5003;70426;37.772;-122.432;2024-02-26T15:11:49;2;2;
80965;PMS5003;70426;37.772;-122.432;2024-02-26T15:14:14;1;1;
80965;PMS5003;70426;37.772;-122.432;2024-02-26T15:16:39;2;2;
80965;PMS5003;70426;37.772;-122.432;2024-02-26T15:19:04;2;2;
80965;PMS5003;70426;37.772;-122.432;2024-02-26T15:21:29;3;3;
80965;PMS5003;70426;37.772;-122.432;2024-02-26T15:23:54;2;2;
80965;PMS5003;70426;37.772;-122.432;2024-02-26T15:26:19;3;3;
80965;PMS5003;70426;37.772;-122.432;2024-02-26T15:28:44;2;2;
80965;PMS5003;70426;37.772;-122.432;2024-02-26T15:31:09;3;3;
80965;PMS5003;70426;37.772;-122.432;2024-02-26T15:33:34;4;4;
80965;PMS5003;70426;37.772;-122.432;2024-02-26T15:36:00;2;2;
80965;PMS5003;70426;37.772;-122.432;2024-02-26T15:38:24;2;2;
80965;PMS5003;70426;37.772;-122.432;2024-02-26T15:40:49;3;2;
80965;PMS5003;70426;37.772;-122.432;2024-02-26T15:43:14;2;2;
80965;PMS5003;70426;37.772;-122.432;2024-02-26T15:45:39;2;2;
80965;PMS5003;70426;37.772;-122.432;2024-02-26T15:48:05;2;2;
80965;PMS5003;70426;37.772;-122.432;2024-02-26T15:50:30;1;1;
80965;PMS5003;70426;37.772;-122.432;2024-02-26T15:52:55;3;3;
80965;PMS5003;70426;37.772;-122.432;2024-02-26T15:55:20;3;2;